Terminal Aerodrome Forecast
Issued by NWS Charleston, WV

Home | Current Version | Previous Version | Text Only | Print | Product List | Glossary On
Versions: 1 2 3 4 5 6 7 8 9 10 11 12 13 14 15 16 17 18
000
FTUS41 KRLX 232125 AAA
TAFBKW
TAF AMD
KBKW 232125Z 2321/2418 13016G28KT P6SM -SHRA OVC035
     FM240400 12023G35KT P6SM OVC030
     FM241200 12019G32KT 4SM -SHRA BKN015=

USA.gov is the U.S. government's official web portal to all federal, state and local government web resources and services.